sensor_id;sensor_type;location;lat;lon;timestamp;temperature;humidity
44111;DHT22;29774;52.664;5.074;2023-06-14T00:00:38;18.70;59.80
44111;DHT22;29774;52.664;5.074;2023-06-14T00:03:08;18.60;59.50
44111;DHT22;29774;52.664;5.074;2023-06-14T00:05:35;18.60;59.20
44111;DHT22;29774;52.664;5.074;2023-06-14T00:08:06;18.60;59.20
44111;DHT22;29774;52.664;5.074;2023-06-14T00:10:35;18.60;58.50
44111;DHT22;29774;52.664;5.074;2023-06-14T00:13:04;18.60;58.10
44111;DHT22;29774;52.664;5.074;2023-06-14T00:15:34;18.60;58.00
44111;DHT22;29774;52.664;5.074;2023-06-14T00:18:00;18.50;57.90
44111;DHT22;29774;52.664;5.074;2023-06-14T00:20:29;18.40;57.80
44111;DHT22;29774;52.664;5.074;2023-06-14T00:22:56;18.50;57.50
44111;DHT22;29774;52.664;5.074;2023-06-14T00:25:23;18.50;58.10
44111;DHT22;29774;52.664;5.074;2023-06-14T00:27:51;18.50;57.50
44111;DHT22;29774;52.664;5.074;2023-06-14T00:30:16;18.50;57.50
44111;DHT22;29774;52.664;5.074;2023-06-14T00:32:43;18.50;57.50
44111;DHT22;29774;52.664;5.074;2023-06-14T00:35:09;18.50;57.40
44111;DHT22;29774;52.664;5.074;2023-06-14T00:37:35;18.40;57.10
44111;DHT22;29774;52.664;5.074;2023-06-14T00:40:01;18.40;57.20
44111;DHT22;29774;52.664;5.074;2023-06-14T00:42:27;18.40;57.30
44111;DHT22;29774;52.664;5.074;2023-06-14T00:44:53;18.30;57.10
44111;DHT22;29774;52.664;5.074;2023-06-14T00:47:19;18.30;57.40
44111;DHT22;29774;52.664;5.074;2023-06-14T00:49:46;18.20;57.40
44111;DHT22;29774;52.664;5.074;2023-06-14T00:52:14;18.20;57.30
44111;DHT22;29774;52.664;5.074;2023-06-14T00:54:40;18.20;57.90
44111;DHT22;29774;52.664;5.074;2023-06-14T00:57:06;18.30;57.40
44111;DHT22;29774;52.664;5.074;2023-06-14T00:59:33;18.30;57.10
44111;DHT22;29774;52.664;5.074;2023-06-14T01:01:58;18.20;57.00
44111;DHT22;29774;52.664;5.074;2023-06-14T01:04:24;18.20;56.90
44111;DHT22;29774;52.664;5.074;2023-06-14T01:10:15;18.10;57.30
44111;DHT22;29774;52.664;5.074;2023-06-14T01:12:57;18.00;57.50
44111;DHT22;29774;52.664;5.074;2023-06-14T01:15:25;18.10;57.70
44111;DHT22;29774;52.664;5.074;2023-06-14T01:17:52;18.10;57.40
44111;DHT22;29774;52.664;5.074;2023-06-14T01:20:20;18.00;57.50
44111;DHT22;29774;52.664;5.074;2023-06-14T01:22:53;18.00;57.60
44111;DHT22;29774;52.664;5.074;2023-06-14T01:25:22;17.90;58.00
44111;DHT22;29774;52.664;5.074;2023-06-14T01:27:51;17.80;57.90
44111;DHT22;29774;52.664;5.074;2023-06-14T01:30:19;17.80;57.80
44111;DHT22;29774;52.664;5.074;2023-06-14T01:32:45;17.80;57.80
44111;DHT22;29774;52.664;5.074;2023-06-14T01:35:11;17.80;57.80
44111;DHT22;29774;52.664;5.074;2023-06-14T01:37:37;17.80;57.90
44111;DHT22;29774;52.664;5.074;2023-06-14T01:40:06;17.70;58.10
44111;DHT22;29774;52.664;5.074;2023-06-14T01:42:34;17.70;58.20
44111;DHT22;29774;52.664;5.074;2023-06-14T01:45:02;17.70;58.20
44111;DHT22;29774;52.664;5.074;2023-06-14T01:47:29;17.70;58.20
44111;DHT22;29774;52.664;5.074;2023-06-14T01:49:55;17.60;58.30
44111;DHT22;29774;52.664;5.074;2023-06-14T01:52:21;17.60;58.30
44111;DHT22;29774;52.664;5.074;2023-06-14T01:54:47;17.60;58.40
44111;DHT22;29774;52.664;5.074;2023-06-14T01:57:15;17.50;58.50
44111;DHT22;29774;52.664;5.074;2023-06-14T01:59:41;17.40;58.80
44111;DHT22;29774;52.664;5.074;2023-06-14T02:02:06;17.40;58.90
44111;DHT22;29774;52.664;5.074;2023-06-14T02:04:32;17.40;58.80
44111;DHT22;29774;52.664;5.074;2023-06-14T02:06:58;17.30;59.00
44111;DHT22;29774;52.664;5.074;2023-06-14T02:09:23;17.30;59.00
44111;DHT22;29774;52.664;5.074;2023-06-14T02:11:49;17.30;59.10
44111;DHT22;29774;52.664;5.074;2023-06-14T02:14:14;17.20;59.40
44111;DHT22;29774;52.664;5.074;2023-06-14T02:16:42;17.20;59.70
44111;DHT22;29774;52.664;5.074;2023-06-14T02:19:15;17.20;59.80
44111;DHT22;29774;52.664;5.074;2023-06-14T02:21:41;17.10;60.00
44111;DHT22;29774;52.664;5.074;2023-06-14T02:24:07;17.10;60.20
44111;DHT22;29774;52.664;5.074;2023-06-14T02:26:33;17.10;60.10
44111;DHT22;29774;52.664;5.074;2023-06-14T02:28:58;17.10;60.20
44111;DHT22;29774;52.664;5.074;2023-06-14T02:31:24;17.00;60.20
44111;DHT22;29774;52.664;5.074;2023-06-14T02:33:49;17.10;60.20
44111;DHT22;29774;52.664;5.074;2023-06-14T02:36:15;17.20;60.10
44111;DHT22;29774;52.664;5.074;2023-06-14T02:38:41;17.10;60.20
44111;DHT22;29774;52.664;5.074;2023-06-14T02:41:06;17.00;60.50
44111;DHT22;29774;52.664;5.074;2023-06-14T02:43:32;17.00;60.70
44111;DHT22;29774;52.664;5.074;2023-06-14T02:45:57;17.00;60.80
44111;DHT22;29774;52.664;5.074;2023-06-14T02:48:23;17.00;60.80
44111;DHT22;29774;52.664;5.074;2023-06-14T02:50:49;16.90;60.90
44111;DHT22;29774;52.664;5.074;2023-06-14T02:53:15;17.00;61.00
44111;DHT22;29774;52.664;5.074;2023-06-14T02:55:41;16.90;61.20
44111;DHT22;29774;52.664;5.074;2023-06-14T02:58:07;16.90;61.30
44111;DHT22;29774;52.664;5.074;2023-06-14T03:00:32;16.80;61.50
44111;DHT22;29774;52.664;5.074;2023-06-14T03:02:58;16.70;62.00
44111;DHT22;29774;52.664;5.074;2023-06-14T03:05:27;16.80;61.90
44111;DHT22;29774;52.664;5.074;2023-06-14T03:07:53;16.70;62.30
44111;DHT22;29774;52.664;5.074;2023-06-14T03:10:19;16.70;62.50
44111;DHT22;29774;52.664;5.074;2023-06-14T03:12:45;16.60;62.80
44111;DHT22;29774;52.664;5.074;2023-06-14T03:15:10;16.60;63.10
44111;DHT22;29774;52.664;5.074;2023-06-14T03:17:38;16.50;63.40
44111;DHT22;29774;52.664;5.074;2023-06-14T03:20:04;16.60;63.60
44111;DHT22;29774;52.664;5.074;2023-06-14T03:22:31;16.60;63.70
44111;DHT22;29774;52.664;5.074;2023-06-14T03:24:58;16.50;64.00
44111;DHT22;29774;52.664;5.074;2023-06-14T03:27:25;16.50;64.30
44111;DHT22;29774;52.664;5.074;2023-06-14T03:29:51;16.30;64.70
44111;DHT22;29774;52.664;5.074;2023-06-14T03:32:16;16.30;65.00
44111;DHT22;29774;52.664;5.074;2023-06-14T03:34:42;16.30;65.10
44111;DHT22;29774;52.664;5.074;2023-06-14T03:37:08;16.30;65.20
44111;DHT22;29774;52.664;5.074;2023-06-14T03:39:33;16.30;65.50
44111;DHT22;29774;52.664;5.074;2023-06-14T03:41:59;16.30;65.80
44111;DHT22;29774;52.664;5.074;2023-06-14T03:44:26;16.30;65.80
44111;DHT22;29774;52.664;5.074;2023-06-14T03:46:52;16.40;65.70
44111;DHT22;29774;52.664;5.074;2023-06-14T03:49:18;16.40;65.80
44111;DHT22;29774;52.664;5.074;2023-06-14T03:51:44;16.40;65.90
44111;DHT22;29774;52.664;5.074;2023-06-14T03:54:10;16.30;66.20
44111;DHT22;29774;52.664;5.074;2023-06-14T03:56:35;16.20;66.60
44111;DHT22;29774;52.664;5.074;2023-06-14T03:59:01;16.20;66.80
44111;DHT22;29774;52.664;5.074;2023-06-14T04:01:27;16.20;66.90
44111;DHT22;29774;52.664;5.074;2023-06-14T04:03:57;16.30;67.00
44111;DHT22;29774;52.664;5.074;2023-06-14T04:06:23;16.30;67.10
44111;DHT22;29774;52.664;5.074;2023-06-14T04:08:51;16.20;67.30
44111;DHT22;29774;52.664;5.074;2023-06-14T04:11:17;16.20;67.50
44111;DHT22;29774;52.664;5.074;2023-06-14T04:13:43;16.30;67.50
44111;DHT22;29774;52.664;5.074;2023-06-14T04:16:09;16.30;67.60
44111;DHT22;29774;52.664;5.074;2023-06-14T04:18:34;16.30;67.60
44111;DHT22;29774;52.664;5.074;2023-06-14T04:21:00;16.30;67.80
44111;DHT22;29774;52.664;5.074;2023-06-14T04:23:26;16.30;67.70
44111;DHT22;29774;52.664;5.074;2023-06-14T04:25:53;16.20;67.80
44111;DHT22;29774;52.664;5.074;2023-06-14T04:28:19;16.20;68.00
44111;DHT22;29774;52.664;5.074;2023-06-14T04:30:45;16.30;68.10
44111;DHT22;29774;52.664;5.074;2023-06-14T04:33:12;16.40;68.00
44111;DHT22;29774;52.664;5.074;2023-06-14T04:35:39;16.40;68.00
44111;DHT22;29774;52.664;5.074;2023-06-14T04:38:06;16.40;67.80
44111;DHT22;29774;52.664;5.074;2023-06-14T04:40:35;16.40;68.00
44111;DHT22;29774;52.664;5.074;2023-06-14T04:43:01;16.40;68.20
44111;DHT22;29774;52.664;5.074;2023-06-14T04:45:32;16.50;68.30
44111;DHT22;29774;52.664;5.074;2023-06-14T04:47:59;16.50;68.20
44111;DHT22;29774;52.664;5.074;2023-06-14T04:50:25;16.60;68.20
44111;DHT22;29774;52.664;5.074;2023-06-14T04:52:51;16.60;68.10
44111;DHT22;29774;52.664;5.074;2023-06-14T04:55:17;16.70;68.10
44111;DHT22;29774;52.664;5.074;2023-06-14T04:57:44;16.70;67.90
44111;DHT22;29774;52.664;5.074;2023-06-14T05:00:10;16.70;67.60
44111;DHT22;29774;52.664;5.074;2023-06-14T05:02:37;16.80;67.60
44111;DHT22;29774;52.664;5.074;2023-06-14T05:05:04;16.80;67.60
44111;DHT22;29774;52.664;5.074;2023-06-14T05:07:32;16.90;67.70
44111;DHT22;29774;52.664;5.074;2023-06-14T05:09:59;17.00;67.40
44111;DHT22;29774;52.664;5.074;2023-06-14T05:12:25;17.00;67.10
44111;DHT22;29774;52.664;5.074;2023-06-14T05:14:50;17.10;67.00
44111;DHT22;29774;52.664;5.074;2023-06-14T05:17:16;17.20;66.80
44111;DHT22;29774;52.664;5.074;2023-06-14T05:19:42;17.40;66.50
44111;DHT22;29774;52.664;5.074;2023-06-14T05:22:08;17.60;66.00
44111;DHT22;29774;52.664;5.074;2023-06-14T05:24:33;17.80;65.50
44111;DHT22;29774;52.664;5.074;2023-06-14T05:26:59;18.00;64.30
44111;DHT22;29774;52.664;5.074;2023-06-14T05:29:25;18.20;64.10
44111;DHT22;29774;52.664;5.074;2023-06-14T05:31:51;18.50;63.70
44111;DHT22;29774;52.664;5.074;2023-06-14T05:34:16;18.70;62.30
44111;DHT22;29774;52.664;5.074;2023-06-14T05:36:42;18.80;61.90
44111;DHT22;29774;52.664;5.074;2023-06-14T05:39:08;19.00;61.50
44111;DHT22;29774;52.664;5.074;2023-06-14T05:41:33;19.20;61.10
44111;DHT22;29774;52.664;5.074;2023-06-14T05:43:59;19.30;60.60
44111;DHT22;29774;52.664;5.074;2023-06-14T05:46:26;19.40;59.60
44111;DHT22;29774;52.664;5.074;2023-06-14T05:48:52;19.50;59.10
44111;DHT22;29774;52.664;5.074;2023-06-14T05:51:17;19.70;59.50
44111;DHT22;29774;52.664;5.074;2023-06-14T05:53:49;19.80;58.80
44111;DHT22;29774;52.664;5.074;2023-06-14T05:56:15;20.00;58.30
44111;DHT22;29774;52.664;5.074;2023-06-14T05:58:43;20.10;57.40
44111;DHT22;29774;52.664;5.074;2023-06-14T06:01:08;20.20;57.10
44111;DHT22;29774;52.664;5.074;2023-06-14T06:03:34;20.30;57.10
44111;DHT22;29774;52.664;5.074;2023-06-14T06:05:59;20.40;56.30
44111;DHT22;29774;52.664;5.074;2023-06-14T06:08:26;20.50;56.30
44111;DHT22;29774;52.664;5.074;2023-06-14T06:10:52;20.70;55.70
44111;DHT22;29774;52.664;5.074;2023-06-14T06:13:17;20.70;55.20
44111;DHT22;29774;52.664;5.074;2023-06-14T06:15:43;20.80;55.00
44111;DHT22;29774;52.664;5.074;2023-06-14T06:18:08;20.90;55.00
44111;DHT22;29774;52.664;5.074;2023-06-14T06:20:34;21.00;54.20
44111;DHT22;29774;52.664;5.074;2023-06-14T06:23:01;21.10;54.10
44111;DHT22;29774;52.664;5.074;2023-06-14T06:25:28;21.10;54.40
44111;DHT22;29774;52.664;5.074;2023-06-14T06:27:54;21.20;53.80
44111;DHT22;29774;52.664;5.074;2023-06-14T06:30:21;21.20;54.00
44111;DHT22;29774;52.664;5.074;2023-06-14T06:32:47;21.40;53.30
44111;DHT22;29774;52.664;5.074;2023-06-14T06:35:13;21.50;53.80
44111;DHT22;29774;52.664;5.074;2023-06-14T06:37:39;21.70;53.40
44111;DHT22;29774;52.664;5.074;2023-06-14T06:40:05;21.90;53.00
44111;DHT22;29774;52.664;5.074;2023-06-14T06:42:31;22.00;52.00
44111;DHT22;29774;52.664;5.074;2023-06-14T06:44:57;22.00;51.40
44111;DHT22;29774;52.664;5.074;2023-06-14T06:47:23;22.10;51.80
44111;DHT22;29774;52.664;5.074;2023-06-14T06:49:49;22.30;52.00
44111;DHT22;29774;52.664;5.074;2023-06-14T06:52:14;22.50;51.10
44111;DHT22;29774;52.664;5.074;2023-06-14T06:54:40;22.60;50.80
44111;DHT22;29774;52.664;5.074;2023-06-14T06:57:06;22.70;49.80
44111;DHT22;29774;52.664;5.074;2023-06-14T06:59:32;22.90;49.40
44111;DHT22;29774;52.664;5.074;2023-06-14T07:01:58;23.00;49.30
44111;DHT22;29774;52.664;5.074;2023-06-14T07:04:23;23.00;49.00
44111;DHT22;29774;52.664;5.074;2023-06-14T07:06:49;23.00;48.50
44111;DHT22;29774;52.664;5.074;2023-06-14T07:09:15;23.00;48.60
44111;DHT22;29774;52.664;5.074;2023-06-14T07:11:44;23.00;48.70
44111;DHT22;29774;52.664;5.074;2023-06-14T07:14:10;23.10;48.90
44111;DHT22;29774;52.664;5.074;2023-06-14T07:16:36;23.30;48.60
44111;DHT22;29774;52.664;5.074;2023-06-14T07:19:03;23.40;48.50
44111;DHT22;29774;52.664;5.074;2023-06-14T07:21:29;23.50;47.70
44111;DHT22;29774;52.664;5.074;2023-06-14T07:23:55;23.70;47.50
44111;DHT22;29774;52.664;5.074;2023-06-14T07:26:20;23.80;47.20
44111;DHT22;29774;52.664;5.074;2023-06-14T07:28:47;23.90;46.10
44111;DHT22;29774;52.664;5.074;2023-06-14T07:31:14;23.80;46.50
44111;DHT22;29774;52.664;5.074;2023-06-14T07:33:41;23.90;46.00
44111;DHT22;29774;52.664;5.074;2023-06-14T07:36:07;24.10;45.60
44111;DHT22;29774;52.664;5.074;2023-06-14T07:38:33;24.20;44.60
44111;DHT22;29774;52.664;5.074;2023-06-14T07:40:59;24.20;44.20
44111;DHT22;29774;52.664;5.074;2023-06-14T07:43:25;24.40;44.00
44111;DHT22;29774;52.664;5.074;2023-06-14T07:45:50;24.60;44.30
44111;DHT22;29774;52.664;5.074;2023-06-14T07:48:16;24.70;43.40
44111;DHT22;29774;52.664;5.074;2023-06-14T07:50:42;24.80;43.10
44111;DHT22;29774;52.664;5.074;2023-06-14T07:53:08;24.80;43.00
44111;DHT22;29774;52.664;5.074;2023-06-14T07:55:34;24.90;42.30
44111;DHT22;29774;52.664;5.074;2023-06-14T07:58:02;24.90;42.70
44111;DHT22;29774;52.664;5.074;2023-06-14T08:00:28;24.90;42.40
44111;DHT22;29774;52.664;5.074;2023-06-14T08:02:54;24.90;41.30
44111;DHT22;29774;52.664;5.074;2023-06-14T08:05:24;24.90;41.40
44111;DHT22;29774;52.664;5.074;2023-06-14T08:07:49;25.20;40.90
44111;DHT22;29774;52.664;5.074;2023-06-14T08:10:15;25.30;40.80
44111;DHT22;29774;52.664;5.074;2023-06-14T08:12:41;25.30;40.80
44111;DHT22;29774;52.664;5.074;2023-06-14T08:15:06;25.60;39.70
44111;DHT22;29774;52.664;5.074;2023-06-14T08:17:33;25.40;39.80
44111;DHT22;29774;52.664;5.074;2023-06-14T08:19:58;25.40;40.70
44111;DHT22;29774;52.664;5.074;2023-06-14T08:22:24;25.60;40.50
44111;DHT22;29774;52.664;5.074;2023-06-14T08:24:51;25.80;39.80
44111;DHT22;29774;52.664;5.074;2023-06-14T08:27:19;26.00;39.30
44111;DHT22;29774;52.664;5.074;2023-06-14T08:29:45;26.20;39.30
44111;DHT22;29774;52.664;5.074;2023-06-14T08:32:11;26.20;38.10
44111;DHT22;29774;52.664;5.074;2023-06-14T08:34:36;26.20;38.60
44111;DHT22;29774;52.664;5.074;2023-06-14T08:37:02;26.30;38.30
44111;DHT22;29774;52.664;5.074;2023-06-14T08:39:28;26.60;38.10
44111;DHT22;29774;52.664;5.074;2023-06-14T08:41:54;26.50;38.20
44111;DHT22;29774;52.664;5.074;2023-06-14T08:44:22;26.40;37.10
44111;DHT22;29774;52.664;5.074;2023-06-14T08:46:48;26.60;37.30
44111;DHT22;29774;52.664;5.074;2023-06-14T08:49:16;26.70;37.60
44111;DHT22;29774;52.664;5.074;2023-06-14T08:51:43;27.00;35.90
44111;DHT22;29774;52.664;5.074;2023-06-14T08:54:10;27.00;36.00
44111;DHT22;29774;52.664;5.074;2023-06-14T08:56:38;27.10;35.60
44111;DHT22;29774;52.664;5.074;2023-06-14T08:59:04;27.20;36.10
44111;DHT22;29774;52.664;5.074;2023-06-14T09:01:35;27.40;35.20
44111;DHT22;29774;52.664;5.074;2023-06-14T09:04:01;27.70;34.00
44111;DHT22;29774;52.664;5.074;2023-06-14T09:06:28;27.60;34.30
44111;DHT22;29774;52.664;5.074;2023-06-14T09:08:55;27.50;34.40
44111;DHT22;29774;52.664;5.074;2023-06-14T09:11:23;27.40;34.40
44111;DHT22;29774;52.664;5.074;2023-06-14T09:13:51;27.40;34.10
44111;DHT22;29774;52.664;5.074;2023-06-14T09:16:16;27.60;33.50
44111;DHT22;29774;52.664;5.074;2023-06-14T09:18:44;27.70;32.90
44111;DHT22;29774;52.664;5.074;2023-06-14T09:21:14;27.70;32.30
44111;DHT22;29774;52.664;5.074;2023-06-14T09:23:44;27.50;33.00
44111;DHT22;29774;52.664;5.074;2023-06-14T09:26:15;27.70;33.60
44111;DHT22;29774;52.664;5.074;2023-06-14T09:28:48;27.80;33.10
44111;DHT22;29774;52.664;5.074;2023-06-14T09:31:17;28.00;30.80
44111;DHT22;29774;52.664;5.074;2023-06-14T09:33:46;27.90;30.30
44111;DHT22;29774;52.664;5.074;2023-06-14T09:36:23;27.80;32.20
44111;DHT22;29774;52.664;5.074;2023-06-14T09:41:34;28.00;32.80
44111;DHT22;29774;52.664;5.074;2023-06-14T09:44:01;28.30;33.10
44111;DHT22;29774;52.664;5.074;2023-06-14T09:46:29;28.40;32.40
44111;DHT22;29774;52.664;5.074;2023-06-14T09:48:55;28.40;32.80
44111;DHT22;29774;52.664;5.074;2023-06-14T09:51:23;28.60;32.30
44111;DHT22;29774;52.664;5.074;2023-06-14T09:53:49;28.50;32.70
44111;DHT22;29774;52.664;5.074;2023-06-14T09:56:26;28.40;32.70
44111;DHT22;29774;52.664;5.074;2023-06-14T09:58:56;28.50;33.60
44111;DHT22;29774;52.664;5.074;2023-06-14T10:01:23;28.70;33.20
44111;DHT22;29774;52.664;5.074;2023-06-14T10:03:50;28.90;33.00
44111;DHT22;29774;52.664;5.074;2023-06-14T10:06:19;29.20;32.10
44111;DHT22;29774;52.664;5.074;2023-06-14T10:08:47;29.10;31.40
44111;DHT22;29774;52.664;5.074;2023-06-14T10:11:13;29.10;31.70
44111;DHT22;29774;52.664;5.074;2023-06-14T10:13:39;29.20;31.50
44111;DHT22;29774;52.664;5.074;2023-06-14T10:16:18;29.10;31.10
44111;DHT22;29774;52.664;5.074;2023-06-14T10:18:53;29.00;31.30
44111;DHT22;29774;52.664;5.074;2023-06-14T10:21:46;29.20;31.60
44111;DHT22;29774;52.664;5.074;2023-06-14T10:24:20;29.40;31.50
44111;DHT22;29774;52.664;5.074;2023-06-14T10:26:51;29.40;31.50
44111;DHT22;29774;52.664;5.074;2023-06-14T10:29:17;29.40;30.40
44111;DHT22;29774;52.664;5.074;2023-06-14T10:31:43;29.30;29.60
44111;DHT22;29774;52.664;5.074;2023-06-14T10:34:10;29.10;29.70
44111;DHT22;29774;52.664;5.074;2023-06-14T10:36:36;28.90;30.20
44111;DHT22;29774;52.664;5.074;2023-06-14T10:39:15;29.20;30.40
44111;DHT22;29774;52.664;5.074;2023-06-14T10:41:41;29.40;30.90
44111;DHT22;29774;52.664;5.074;2023-06-14T10:46:49;29.70;29.40
44111;DHT22;29774;52.664;5.074;2023-06-14T10:52:12;29.70;29.70
44111;DHT22;29774;52.664;5.074;2023-06-14T10:55:15;29.60;29.70
44111;DHT22;29774;52.664;5.074;2023-06-14T11:00:12;29.90;28.80
44111;DHT22;29774;52.664;5.074;2023-06-14T11:05:26;29.70;29.10
44111;DHT22;29774;52.664;5.074;2023-06-14T11:10:49;30.00;28.10
44111;DHT22;29774;52.664;5.074;2023-06-14T11:13:18;29.80;28.20
44111;DHT22;29774;52.664;5.074;2023-06-14T11:15:45;30.10;28.00
44111;DHT22;29774;52.664;5.074;2023-06-14T11:18:13;30.20;28.00
44111;DHT22;29774;52.664;5.074;2023-06-14T11:20:39;30.00;27.80
44111;DHT22;29774;52.664;5.074;2023-06-14T11:23:05;30.00;28.50
44111;DHT22;29774;52.664;5.074;2023-06-14T11:25:31;30.10;27.60
44111;DHT22;29774;52.664;5.074;2023-06-14T11:27:57;30.10;28.30
44111;DHT22;29774;52.664;5.074;2023-06-14T11:30:24;29.90;28.60
44111;DHT22;29774;52.664;5.074;2023-06-14T11:32:52;29.90;28.70
44111;DHT22;29774;52.664;5.074;2023-06-14T11:35:21;30.00;28.90
44111;DHT22;29774;52.664;5.074;2023-06-14T11:37:49;29.80;28.40
44111;DHT22;29774;52.664;5.074;2023-06-14T11:40:15;29.90;28.40
44111;DHT22;29774;52.664;5.074;2023-06-14T11:42:41;30.00;28.70
44111;DHT22;29774;52.664;5.074;2023-06-14T11:45:08;30.10;28.10
44111;DHT22;29774;52.664;5.074;2023-06-14T11:47:38;30.00;28.00
44111;DHT22;29774;52.664;5.074;2023-06-14T11:50:06;30.00;28.50
44111;DHT22;29774;52.664;5.074;2023-06-14T11:52:32;30.10;27.80
44111;DHT22;29774;52.664;5.074;2023-06-14T11:54:58;30.10;28.20
44111;DHT22;29774;52.664;5.074;2023-06-14T11:57:25;30.20;27.60
44111;DHT22;29774;52.664;5.074;2023-06-14T11:59:51;30.20;28.20
44111;DHT22;29774;52.664;5.074;2023-06-14T12:02:18;30.20;27.70
44111;DHT22;29774;52.664;5.074;2023-06-14T12:04:47;30.20;28.20
44111;DHT22;29774;52.664;5.074;2023-06-14T12:07:17;30.60;27.80
44111;DHT22;29774;52.664;5.074;2023-06-14T12:12:23;30.50;27.20
44111;DHT22;29774;52.664;5.074;2023-06-14T12:14:53;30.60;28.90
44111;DHT22;29774;52.664;5.074;2023-06-14T12:17:19;30.60;27.50
44111;DHT22;29774;52.664;5.074;2023-06-14T12:19:46;30.70;27.70
44111;DHT22;29774;52.664;5.074;2023-06-14T12:22:13;30.90;26.60
44111;DHT22;29774;52.664;5.074;2023-06-14T12:24:39;31.00;27.20
44111;DHT22;29774;52.664;5.074;2023-06-14T12:27:08;31.10;26.80
44111;DHT22;29774;52.664;5.074;2023-06-14T12:29:34;31.00;27.20
44111;DHT22;29774;52.664;5.074;2023-06-14T12:32:01;31.10;26.70
44111;DHT22;29774;52.664;5.074;2023-06-14T12:34:27;31.10;26.20
44111;DHT22;29774;52.664;5.074;2023-06-14T12:36:53;31.00;26.30
44111;DHT22;29774;52.664;5.074;2023-06-14T12:39:20;31.00;25.40
44111;DHT22;29774;52.664;5.074;2023-06-14T12:41:46;30.70;26.00
44111;DHT22;29774;52.664;5.074;2023-06-14T12:44:12;30.50;26.60
44111;DHT22;29774;52.664;5.074;2023-06-14T12:46:39;30.40;27.20
44111;DHT22;29774;52.664;5.074;2023-06-14T12:49:05;30.30;27.30
44111;DHT22;29774;52.664;5.074;2023-06-14T12:51:32;30.40;27.30
44111;DHT22;29774;52.664;5.074;2023-06-14T12:56:24;30.20;27.60
44111;DHT22;29774;52.664;5.074;2023-06-14T12:58:49;30.20;27.60
44111;DHT22;29774;52.664;5.074;2023-06-14T13:01:15;30.40;27.30
44111;DHT22;29774;52.664;5.074;2023-06-14T13:03:41;30.60;27.10
44111;DHT22;29774;52.664;5.074;2023-06-14T13:06:06;30.70;27.80
44111;DHT22;29774;52.664;5.074;2023-06-14T13:08:32;30.80;27.20
44111;DHT22;29774;52.664;5.074;2023-06-14T13:10:58;30.80;27.30
44111;DHT22;29774;52.664;5.074;2023-06-14T13:13:23;30.70;27.10
44111;DHT22;29774;52.664;5.074;2023-06-14T13:15:50;30.60;26.90
44111;DHT22;29774;52.664;5.074;2023-06-14T13:18:16;30.50;27.00
44111;DHT22;29774;52.664;5.074;2023-06-14T13:20:42;30.60;27.00
44111;DHT22;29774;52.664;5.074;2023-06-14T13:23:08;30.60;26.60
44111;DHT22;29774;52.664;5.074;2023-06-14T13:25:36;30.20;27.60
44111;DHT22;29774;52.664;5.074;2023-06-14T13:28:03;30.30;27.60
44111;DHT22;29774;52.664;5.074;2023-06-14T13:30:29;30.20;27.40
44111;DHT22;29774;52.664;5.074;2023-06-14T13:32:55;30.20;27.50
44111;DHT22;29774;52.664;5.074;2023-06-14T13:35:22;30.30;27.20
44111;DHT22;29774;52.664;5.074;2023-06-14T13:37:47;30.40;26.40
44111;DHT22;29774;52.664;5.074;2023-06-14T13:40:13;30.70;26.20
44111;DHT22;29774;52.664;5.074;2023-06-14T13:42:39;30.50;26.00
44111;DHT22;29774;52.664;5.074;2023-06-14T13:45:06;30.50;25.30
44111;DHT22;29774;52.664;5.074;2023-06-14T13:47:32;30.50;25.30
44111;DHT22;29774;52.664;5.074;2023-06-14T13:49:58;30.60;25.30
44111;DHT22;29774;52.664;5.074;2023-06-14T13:52:24;30.40;26.30
44111;DHT22;29774;52.664;5.074;2023-06-14T13:54:50;30.20;26.10
44111;DHT22;29774;52.664;5.074;2023-06-14T13:57:17;30.20;26.40
44111;DHT22;29774;52.664;5.074;2023-06-14T13:59:43;30.30;26.10
44111;DHT22;29774;52.664;5.074;2023-06-14T14:02:12;30.40;26.60
44111;DHT22;29774;52.664;5.074;2023-06-14T14:04:39;30.50;26.10
44111;DHT22;29774;52.664;5.074;2023-06-14T14:07:06;30.60;25.90
44111;DHT22;29774;52.664;5.074;2023-06-14T14:09:32;30.40;26.00
44111;DHT22;29774;52.664;5.074;2023-06-14T14:11:58;30.50;26.80
44111;DHT22;29774;52.664;5.074;2023-06-14T14:14:24;30.40;27.10
44111;DHT22;29774;52.664;5.074;2023-06-14T14:16:50;30.40;27.50
44111;DHT22;29774;52.664;5.074;2023-06-14T14:19:23;30.40;26.80
44111;DHT22;29774;52.664;5.074;2023-06-14T14:21:48;30.20;27.20
44111;DHT22;29774;52.664;5.074;2023-06-14T14:24:14;30.10;26.50
44111;DHT22;29774;52.664;5.074;2023-06-14T14:26:41;29.90;26.30
44111;DHT22;29774;52.664;5.074;2023-06-14T14:29:07;29.70;26.40
44111;DHT22;29774;52.664;5.074;2023-06-14T14:31:33;29.70;27.30
44111;DHT22;29774;52.664;5.074;2023-06-14T14:33:58;29.70;28.00
44111;DHT22;29774;52.664;5.074;2023-06-14T14:36:24;29.30;27.60
44111;DHT22;29774;52.664;5.074;2023-06-14T14:38:49;28.40;27.90
44111;DHT22;29774;52.664;5.074;2023-06-14T14:41:17;28.00;28.70
44111;DHT22;29774;52.664;5.074;2023-06-14T14:43:43;27.60;29.10
44111;DHT22;29774;52.664;5.074;2023-06-14T14:46:08;27.20;28.90
44111;DHT22;29774;52.664;5.074;2023-06-14T14:48:34;26.90;29.40
44111;DHT22;29774;52.664;5.074;2023-06-14T14:51:00;26.70;30.30
44111;DHT22;29774;52.664;5.074;2023-06-14T14:53:25;26.50;31.30
44111;DHT22;29774;52.664;5.074;2023-06-14T14:55:51;26.30;32.20
44111;DHT22;29774;52.664;5.074;2023-06-14T14:58:16;26.20;31.90
44111;DHT22;29774;52.664;5.074;2023-06-14T15:00:44;26.10;31.80
44111;DHT22;29774;52.664;5.074;2023-06-14T15:03:10;26.00;32.40
44111;DHT22;29774;52.664;5.074;2023-06-14T15:05:35;26.00;32.60
44111;DHT22;29774;52.664;5.074;2023-06-14T15:08:03;26.00;33.00
44111;DHT22;29774;52.664;5.074;2023-06-14T15:10:28;25.90;32.50
44111;DHT22;29774;52.664;5.074;2023-06-14T15:12:54;25.70;32.80
44111;DHT22;29774;52.664;5.074;2023-06-14T15:15:21;25.60;32.80
44111;DHT22;29774;52.664;5.074;2023-06-14T15:17:47;25.60;34.00
44111;DHT22;29774;52.664;5.074;2023-06-14T15:20:12;25.30;33.20
44111;DHT22;29774;52.664;5.074;2023-06-14T15:22:39;25.30;34.00
44111;DHT22;29774;52.664;5.074;2023-06-14T15:25:05;25.30;34.10
44111;DHT22;29774;52.664;5.074;2023-06-14T15:27:31;25.20;34.10
44111;DHT22;29774;52.664;5.074;2023-06-14T15:29:56;25.10;34.00
44111;DHT22;29774;52.664;5.074;2023-06-14T15:32:22;25.00;34.90
44111;DHT22;29774;52.664;5.074;2023-06-14T15:34:48;25.00;35.20
44111;DHT22;29774;52.664;5.074;2023-06-14T15:37:13;25.10;35.60
44111;DHT22;29774;52.664;5.074;2023-06-14T15:39:39;25.00;34.90
44111;DHT22;29774;52.664;5.074;2023-06-14T15:42:05;25.00;35.30
44111;DHT22;29774;52.664;5.074;2023-06-14T15:44:31;25.00;35.50
44111;DHT22;29774;52.664;5.074;2023-06-14T15:46:57;25.00;36.10
44111;DHT22;29774;52.664;5.074;2023-06-14T15:49:23;25.00;36.20
44111;DHT22;29774;52.664;5.074;2023-06-14T15:51:48;24.90;36.20